createdAt,value
2023-03-02T00:03:16.589Z,33.51
2023-03-02T00:07:16.638Z,33.57
2023-03-02T00:11:16.572Z,28.63
2023-03-02T00:15:16.577Z,32.81
2023-03-02T00:19:16.610Z,32.43
2023-03-02T00:23:16.564Z,34.53
2023-03-02T00:27:16.562Z,29.78
2023-03-02T00:31:16.633Z,32.86
2023-03-02T00:35:16.602Z,30.70
2023-03-02T00:39:16.599Z,27.99
2023-03-02T00:43:16.623Z,31.40
2023-03-02T00:47:16.635Z,28.16
2023-03-02T00:51:16.621Z,30.31
2023-03-02T00:55:16.668Z,28.89
2023-03-02T00:59:16.667Z,27.25
2023-03-02T01:03:16.715Z,30.95
2023-03-02T01:07:16.667Z,30.13
2023-03-02T01:11:16.705Z,26.83
2023-03-02T01:15:16.736Z,27.53
2023-03-02T01:19:16.787Z,28.26
2023-03-02T01:23:16.839Z,27.65
2023-03-02T01:27:16.829Z,28.45
2023-03-02T01:31:16.863Z,28.29
2023-03-02T01:35:16.884Z,29.05
2023-03-02T01:39:16.903Z,29.35
2023-03-02T01:43:16.921Z,30.06
2023-03-02T01:47:16.949Z,27.58
2023-03-02T01:51:16.974Z,28.17
2023-03-02T01:55:16.995Z,27.35
2023-03-02T01:59:17.061Z,25.66
2023-03-02T02:03:17.071Z,30.04
2023-03-02T02:07:17.078Z,28.83
2023-03-02T02:11:17.181Z,27.90
2023-03-02T02:15:17.195Z,31.50
2023-03-02T02:19:17.270Z,27.98
2023-03-02T02:23:17.337Z,31.26
2023-03-02T02:27:17.407Z,29.65
2023-03-02T02:31:17.557Z,28.67
2023-03-02T02:35:17.558Z,28.35
2023-03-02T02:39:17.656Z,28.20
2023-03-02T02:43:17.748Z,27.34
2023-03-02T02:47:17.803Z,26.89
2023-03-02T02:51:17.862Z,28.22
2023-03-02T02:55:17.889Z,28.22
2023-03-02T02:59:17.978Z,27.96
2023-03-02T03:03:17.997Z,28.98
2023-03-02T03:07:18.030Z,28.72
2023-03-02T03:11:18.140Z,29.14
2023-03-02T03:15:18.188Z,29.39
2023-03-02T03:19:18.290Z,29.82
2023-03-02T03:23:18.313Z,31.18
2023-03-02T03:27:18.384Z,27.40
2023-03-02T03:31:18.571Z,26.75
2023-03-02T03:35:18.680Z,30.85
2023-03-02T03:39:18.655Z,29.65
2023-03-02T03:43:18.769Z,30.16
2023-03-02T03:47:18.937Z,28.35
2023-03-02T03:51:18.959Z,28.08
2023-03-02T03:55:19.037Z,28.49
2023-03-02T03:59:19.057Z,32.95
2023-03-02T04:03:19.195Z,28.83
2023-03-02T04:07:19.261Z,27.43
2023-03-02T04:11:19.313Z,27.99
2023-03-02T04:15:19.415Z,26.81
2023-03-02T04:19:19.499Z,29.88
2023-03-02T04:23:19.632Z,26.31
2023-03-02T04:27:19.679Z,28.56
2023-03-02T04:31:19.779Z,25.78
2023-03-02T04:35:19.973Z,27.63
2023-03-02T04:39:19.958Z,25.04
2023-03-02T04:43:20.041Z,27.28
2023-03-02T04:47:20.153Z,28.71
2023-03-02T04:51:20.240Z,29.05
2023-03-02T04:55:20.341Z,27.65
2023-03-02T04:59:20.440Z,29.69
2023-03-02T05:03:20.556Z,27.04
2023-03-02T05:07:20.651Z,25.00
2023-03-02T05:11:20.746Z,25.22
2023-03-02T05:15:20.918Z,25.00
2023-03-02T05:19:20.989Z,27.68
2023-03-02T05:23:21.091Z,26.03
2023-03-02T05:27:21.210Z,25.24
2023-03-02T05:31:21.385Z,25.45
2023-03-02T05:35:21.484Z,26.84
2023-03-02T05:39:21.637Z,28.01
2023-03-02T05:43:21.743Z,32.08
2023-03-02T05:47:21.954Z,32.40
2023-03-02T05:51:22.085Z,31.64
2023-03-02T05:55:22.245Z,32.87
2023-03-02T05:59:22.381Z,32.69
2023-03-02T06:03:22.631Z,34.49
2023-03-02T06:07:22.711Z,32.44
2023-03-02T06:11:22.843Z,36.13
2023-03-02T06:15:23.003Z,34.21
2023-03-02T06:19:23.145Z,35.92
2023-03-02T06:23:23.369Z,36.89
2023-03-02T06:27:23.557Z,37.27
2023-03-02T06:31:23.656Z,35.74
2023-03-02T06:35:24.076Z,34.98
2023-03-02T06:39:23.949Z,30.80
2023-03-02T06:43:24.089Z,49.25
2023-03-02T06:47:24.103Z,38.21
2023-03-02T06:51:24.087Z,41.59
2023-03-02T06:55:24.079Z,35.25
2023-03-02T06:59:24.031Z,37.49
2023-03-02T07:03:24.031Z,33.79
2023-03-02T07:07:24.085Z,32.98
2023-03-02T07:11:24.417Z,33.49
2023-03-02T07:15:24.544Z,32.91
2023-03-02T07:19:24.458Z,28.94
2023-03-02T07:23:24.384Z,29.87
2023-03-02T07:27:24.384Z,25.81
2023-03-02T07:31:24.303Z,28.30
2023-03-02T07:35:24.311Z,41.36
2023-03-02T07:39:24.238Z,48.20
2023-03-02T07:43:24.226Z,44.40
2023-03-02T07:47:24.189Z,44.63
2023-03-02T07:51:24.139Z,49.04
2023-03-02T07:55:24.068Z,44.23
2023-03-02T07:59:24.407Z,48.92
2023-03-02T08:03:24.438Z,50.68
2023-03-02T08:07:24.141Z,51.17
2023-03-02T08:11:24.254Z,48.91
2023-03-02T08:15:24.308Z,63.73
2023-03-02T08:19:24.426Z,55.58
2023-03-02T08:23:24.488Z,47.76
2023-03-02T08:27:24.476Z,48.57
2023-03-02T08:31:24.562Z,26.52
2023-03-02T08:35:24.952Z,25.59
2023-03-02T08:39:24.969Z,28.35
2023-03-02T08:43:24.816Z,33.70
2023-03-02T08:47:24.970Z,37.40
2023-03-02T08:51:25.061Z,47.67
2023-03-02T08:55:25.545Z,52.98
2023-03-02T08:59:25.077Z,58.94
2023-03-02T09:03:25.158Z,61.51
2023-03-02T09:07:25.361Z,68.37
2023-03-02T09:11:25.454Z,67.80
2023-03-02T09:15:25.294Z,68.18
2023-03-02T09:19:25.281Z,65.71
2023-03-02T09:23:25.249Z,61.93
2023-03-02T09:27:25.245Z,41.94
2023-03-02T09:31:25.232Z,25.93
2023-03-02T09:35:25.098Z,26.63
2023-03-02T09:39:25.062Z,28.95
2023-03-02T09:43:25.035Z,31.84
2023-03-02T09:47:35.189Z,45.31
2023-03-02T09:51:26.010Z,50.50
2023-03-02T09:55:24.933Z,64.15
2023-03-02T09:59:24.905Z,72.17
2023-03-02T10:03:24.942Z,78.75
2023-03-02T10:07:25.054Z,79.63
2023-03-02T10:11:25.034Z,83.60
2023-03-02T10:15:24.989Z,83.03
2023-03-02T10:19:24.934Z,83.87
2023-03-02T10:23:24.887Z,82.59
2023-03-02T10:27:24.878Z,84.46
2023-03-02T10:31:24.898Z,82.22
2023-03-02T10:35:25.042Z,82.38
2023-03-02T10:39:24.737Z,83.40
2023-03-02T10:43:24.703Z,80.74
2023-03-02T10:47:24.698Z,74.11
2023-03-02T10:51:24.719Z,69.01
2023-03-02T10:55:24.653Z,63.40
2023-03-02T10:59:24.577Z,62.13
2023-03-02T11:03:24.600Z,57.40
2023-03-02T11:07:24.579Z,54.04
2023-03-02T11:11:24.555Z,50.03
2023-03-02T11:15:24.581Z,52.97
2023-03-02T11:19:24.473Z,51.47
2023-03-02T11:23:24.394Z,51.61
2023-03-02T11:27:24.368Z,49.16
2023-03-02T11:31:24.403Z,50.34
2023-03-02T11:35:24.341Z,50.04
2023-03-02T11:39:24.228Z,52.17
2023-03-02T11:43:24.192Z,50.06
2023-03-02T11:47:24.249Z,52.41
2023-03-02T11:51:24.239Z,54.43
2023-03-02T11:55:24.422Z,51.07
2023-03-02T11:59:27.531Z,53.68
2023-03-02T12:03:24.534Z,52.92
2023-03-02T12:07:24.512Z,53.81
2023-03-02T12:11:24.463Z,57.36
2023-03-02T12:15:24.410Z,52.68
2023-03-02T12:19:24.513Z,57.95
2023-03-02T12:23:24.535Z,52.65
2023-03-02T12:27:24.501Z,55.47
2023-03-02T12:31:24.442Z,53.06
2023-03-02T12:35:24.383Z,55.38
2023-03-02T12:39:24.284Z,56.85
2023-03-02T12:43:24.280Z,58.70
2023-03-02T12:47:24.953Z,56.78
2023-03-02T12:51:24.373Z,56.82
2023-03-02T12:55:24.213Z,57.76
2023-03-02T12:59:24.144Z,57.22
2023-03-02T13:03:24.356Z,56.81
2023-03-02T13:07:24.514Z,58.59
2023-03-02T13:11:24.702Z,55.59
2023-03-02T13:15:24.888Z,55.50
2023-03-02T13:19:25.041Z,54.83
2023-03-02T13:23:25.176Z,56.85
2023-03-02T13:27:25.440Z,54.75
2023-03-02T13:31:25.606Z,57.32
2023-03-02T13:35:26.623Z,58.73
2023-03-02T13:39:25.912Z,57.14
2023-03-02T13:43:26.004Z,58.80
2023-03-02T13:47:26.060Z,62.43
2023-03-02T13:51:26.138Z,62.24
2023-03-02T13:55:26.220Z,63.31
2023-03-02T13:59:26.273Z,70.35
2023-03-02T14:03:26.275Z,70.87
2023-03-02T14:07:26.267Z,72.80
2023-03-02T14:11:26.284Z,75.42
2023-03-02T14:15:26.435Z,78.25
2023-03-02T14:19:26.636Z,78.60
2023-03-02T14:23:26.652Z,80.83
2023-03-02T14:27:26.533Z,82.15
2023-03-02T14:31:26.594Z,82.84
2023-03-02T14:35:26.504Z,82.34
2023-03-02T14:39:26.489Z,85.83
2023-03-02T14:43:26.411Z,85.65
2023-03-02T14:47:26.349Z,87.14
2023-03-02T14:51:26.314Z,89.85
2023-03-02T14:55:26.323Z,89.45
2023-03-02T14:59:26.282Z,91.18
2023-03-02T15:03:26.231Z,88.13
2023-03-02T15:07:26.184Z,84.89
2023-03-02T15:11:26.159Z,88.41
2023-03-02T15:15:26.123Z,126.33
2023-03-02T15:19:26.085Z,135.91
2023-03-02T15:23:26.058Z,132.60
2023-03-02T15:27:26.067Z,137.71
2023-03-02T15:31:26.296Z,104.47
2023-03-02T15:35:26.320Z,77.12
2023-03-02T15:39:26.395Z,61.17
2023-03-02T15:43:26.507Z,52.34
2023-03-02T15:47:26.609Z,46.76
2023-03-02T15:51:26.776Z,40.77
2023-03-02T15:55:27.047Z,39.23
2023-03-02T15:59:26.977Z,38.40
2023-03-02T16:03:26.954Z,39.43
2023-03-02T16:07:26.923Z,38.52
2023-03-02T16:11:26.918Z,37.76
2023-03-02T16:15:26.831Z,40.80
2023-03-02T16:19:26.789Z,38.04
2023-03-02T16:23:26.777Z,35.72
2023-03-02T16:27:26.740Z,42.87
2023-03-02T16:31:26.860Z,32.97
2023-03-02T16:35:26.646Z,31.97
2023-03-02T16:39:26.600Z,26.42
2023-03-02T16:43:26.611Z,26.51
2023-03-02T16:47:26.542Z,28.63
2023-03-02T16:51:26.502Z,26.07
2023-03-02T16:55:26.506Z,25.64
2023-03-02T16:59:26.434Z,25.92
2023-03-02T17:03:26.394Z,29.55
2023-03-02T17:07:26.494Z,30.51
2023-03-02T17:11:26.484Z,29.23
2023-03-02T17:15:26.408Z,28.08
2023-03-02T17:19:26.354Z,26.19
2023-03-02T17:23:26.361Z,28.11
2023-03-02T17:27:26.322Z,26.71
2023-03-02T17:31:26.315Z,29.03
2023-03-02T17:35:26.238Z,26.82
2023-03-02T17:39:26.207Z,26.31
2023-03-02T17:43:26.143Z,27.03
2023-03-02T17:47:26.147Z,27.15
2023-03-02T17:51:26.104Z,28.07
2023-03-02T17:55:26.094Z,28.22
2023-03-02T17:59:26.017Z,27.40
2023-03-02T18:03:26.019Z,27.90
2023-03-02T18:07:25.974Z,25.00
2023-03-02T18:11:25.915Z,27.16
2023-03-02T18:15:25.898Z,30.70
2023-03-02T18:19:25.909Z,27.62
2023-03-02T18:23:25.816Z,26.87
2023-03-02T18:27:25.980Z,30.54
2023-03-02T18:31:26.011Z,29.10
2023-03-02T18:35:26.087Z,28.77
2023-03-02T18:39:26.192Z,29.30
2023-03-02T18:43:26.304Z,27.52
2023-03-02T18:47:26.449Z,27.93
2023-03-02T18:51:26.593Z,28.13
2023-03-02T18:55:26.741Z,28.13
2023-03-02T18:59:26.949Z,25.00
2023-03-02T19:03:27.179Z,26.23
2023-03-02T19:07:27.264Z,31.26
2023-03-02T19:11:27.244Z,34.38
2023-03-02T19:15:27.217Z,45.33
2023-03-02T19:19:27.134Z,49.24
2023-03-02T19:23:27.122Z,52.94
2023-03-02T19:27:27.050Z,54.58
2023-03-02T19:31:27.134Z,59.19
2023-03-02T19:35:27.005Z,64.67
2023-03-02T19:39:26.943Z,60.83
2023-03-02T19:43:26.922Z,63.65
2023-03-02T19:47:26.944Z,66.58
2023-03-02T19:51:26.847Z,69.35
2023-03-02T19:55:26.789Z,66.15
2023-03-02T19:59:26.743Z,67.63
2023-03-02T20:03:26.718Z,68.41
2023-03-02T20:07:26.707Z,69.73
2023-03-02T20:11:26.671Z,70.05
2023-03-02T20:15:26.637Z,71.11
2023-03-02T20:19:26.629Z,70.99
2023-03-02T20:23:26.540Z,70.10
2023-03-02T20:27:26.509Z,67.88
2023-03-02T20:31:26.492Z,72.86
2023-03-02T20:35:26.538Z,68.28
2023-03-02T20:39:26.379Z,69.51
2023-03-02T20:43:26.415Z,70.58
2023-03-02T20:47:26.328Z,71.16
2023-03-02T20:51:26.396Z,70.57
2023-03-02T20:55:26.550Z,70.02
2023-03-02T20:59:26.639Z,71.24
2023-03-02T21:03:26.720Z,71.26
2023-03-02T21:07:26.837Z,70.33
2023-03-02T21:11:26.984Z,70.14
2023-03-02T21:15:27.069Z,67.57
2023-03-02T21:19:27.194Z,67.51
2023-03-02T21:23:27.340Z,69.42
2023-03-02T21:27:28.472Z,69.38
2023-03-02T21:31:27.655Z,66.41
2023-03-02T21:35:27.772Z,66.37
2023-03-02T21:39:27.919Z,69.96
2023-03-02T21:43:28.056Z,68.24
2023-03-02T21:47:28.194Z,69.24
2023-03-02T21:51:28.322Z,68.94
2023-03-02T21:55:28.530Z,65.69
2023-03-02T21:59:28.660Z,68.23
2023-03-02T22:03:28.763Z,67.37
2023-03-02T22:07:28.930Z,65.37
2023-03-02T22:11:29.024Z,65.80
2023-03-02T22:15:29.175Z,63.86
2023-03-02T22:19:29.357Z,64.07
2023-03-02T22:23:29.473Z,66.59
2023-03-02T22:27:29.629Z,66.27
2023-03-02T22:31:29.847Z,65.58
2023-03-02T22:35:29.988Z,62.89
2023-03-02T22:39:30.136Z,64.04
2023-03-02T22:43:30.305Z,66.94
2023-03-02T22:47:30.457Z,66.52
2023-03-02T22:51:30.574Z,64.60
2023-03-02T22:55:30.807Z,63.84
2023-03-02T22:59:30.992Z,62.78
2023-03-02T23:03:31.148Z,62.64
2023-03-02T23:07:31.347Z,63.57
2023-03-02T23:11:31.530Z,62.58
2023-03-02T23:15:31.710Z,63.85
2023-03-02T23:19:31.953Z,63.43
2023-03-02T23:23:32.100Z,62.34
2023-03-02T23:27:32.272Z,61.07
2023-03-02T23:31:32.502Z,62.92
2023-03-02T23:35:32.696Z,64.27
2023-03-02T23:39:32.893Z,61.50
2023-03-02T23:43:33.044Z,61.24
2023-03-02T23:47:33.197Z,63.82
2023-03-02T23:51:33.386Z,61.10
2023-03-02T23:55:33.562Z,60.13
2023-03-02T23:59:33.749Z,60.94
